Time;durP1;ratioP1;P1;durP2;ratioP2;P2;SDS_P1;SDS_P2;PMS_P1;PMS_P2;Temp;Humidity;BMP_temperature;BMP_pressure;BME280_temperature;BME280_humidity;BME280_pressure;Samples;Min_cycle;Max_cycle;Signal;HPM_P1;HPM_P2
2023/02/17 00:01:16;;;;;;;;;17.25;15.75;;;;;12.91;59.16;102115.91;6276408;22;48287;-74
2023/02/17 00:03:41;;;;;;;;;20.75;19.00;;;;;12.93;58.87;102117.66;6278803;22;45160;-73
2023/02/17 00:06:08;;;;;;;;;20.50;19.50;;;;;12.93;59.34;102124.69;6278639;22;45139;-72
2023/02/17 00:08:34;;;;;;;;;18.00;17.00;;;;;12.89;58.98;102110.59;6278050;22;45445;-74
2023/02/17 00:10:59;;;;;;;;;17.50;17.00;;;;;12.92;59.27;102126.44;6277982;22;45982;-75
2023/02/17 00:13:25;;;;;;;;;22.75;20.00;;;;;12.87;59.29;102109.75;6278483;22;45323;-77
2023/02/17 00:15:51;;;;;;;;;19.25;19.25;;;;;12.90;59.08;102114.16;6276969;22;45267;-74
2023/02/17 00:18:18;;;;;;;;;20.25;18.50;;;;;12.89;59.12;102115.88;6278371;22;45355;-72
2023/02/17 00:20:44;;;;;;;;;19.25;16.75;;;;;12.90;59.29;102117.66;6278546;22;45196;-71
2023/02/17 00:23:09;;;;;;;;;20.00;18.25;;;;;12.89;59.06;102112.38;6278477;22;45136;-70
2023/02/17 00:25:37;;;;;;;;;19.00;18.00;;;;;12.84;59.41;102115.03;6278618;22;45145;-75
2023/02/17 00:28:02;;;;;;;;;19.50;17.25;;;;;12.84;59.30;102104.47;6273692;22;45359;-72
2023/02/17 00:30:28;;;;;;;;;18.75;16.75;;;;;12.84;59.58;102104.47;6275088;22;46050;-72
2023/02/17 00:32:53;;;;;;;;;20.75;15.50;;;;;12.82;59.56;102100.97;6274829;22;45331;-72
2023/02/17 00:35:18;;;;;;;;;19.25;18.25;;;;;12.82;59.31;102109.75;6276456;22;45557;-72
2023/02/17 00:37:44;;;;;;;;;17.50;16.25;;;;;12.85;59.51;102103.59;6278337;22;45626;-72
2023/02/17 00:40:14;;;;;;;;;22.50;17.75;;;;;12.85;59.42;102111.50;6276086;22;47466;-73
2023/02/17 00:42:39;;;;;;;;;13.75;13.75;;;;;12.87;59.43;102108.84;6277306;22;45140;-73
2023/02/17 00:45:05;;;;;;;;;18.00;17.00;;;;;12.87;59.61;102109.75;6278359;22;45171;-72
2023/02/17 00:47:31;;;;;;;;;17.75;15.75;;;;;12.86;59.54;102108.00;6276317;22;45262;-72
2023/02/17 00:49:56;;;;;;;;;22.00;15.25;;;;;12.83;59.72;102103.59;6278168;22;46052;-73
2023/02/17 00:52:22;;;;;;;;;22.75;20.25;;;;;12.84;59.76;102104.47;6278675;22;45144;-72
2023/02/17 00:54:47;;;;;;;;;19.50;19.00;;;;;12.83;59.81;102106.25;6276451;22;45180;-72
2023/02/17 00:57:13;;;;;;;;;19.25;18.50;;;;;12.82;59.84;102096.56;6277492;22;45162;-72
2023/02/17 00:59:39;;;;;;;;;15.50;13.75;;;;;12.81;59.66;102100.06;6276078;22;47026;-72
2023/02/17 01:02:04;;;;;;;;;17.50;15.25;;;;;12.82;59.61;102096.56;6275947;22;45284;-72
2023/02/17 01:04:29;;;;;;;;;22.00;18.25;;;;;12.84;59.89;102099.19;6275751;22;45331;-71
2023/02/17 01:06:55;;;;;;;;;20.00;18.25;;;;;12.82;59.80;102100.97;6276128;22;45409;-72
2023/02/17 01:09:20;;;;;;;;;17.25;14.75;;;;;12.82;59.61;102100.97;6277648;22;45952;-72
2023/02/17 01:11:46;;;;;;;;;18.50;15.75;;;;;12.83;59.97;102100.09;6275845;22;45259;-72
2023/02/17 01:14:12;;;;;;;;;25.25;21.00;;;;;12.82;60.06;102096.56;6278623;22;45794;-72
2023/02/17 01:16:40;;;;;;;;;17.25;13.75;;;;;12.81;60.03;102094.78;6276354;22;45304;-72
2023/02/17 01:19:09;;;;;;;;;19.00;16.75;;;;;12.83;59.83;102095.69;6277625;22;45211;-72
2023/02/17 01:21:35;;;;;;;;;20.50;19.25;;;;;12.82;60.22;102098.34;6277640;22;45307;-72
2023/02/17 01:24:02;;;;;;;;;18.00;15.00;;;;;12.81;60.12;102101.84;6277855;22;45342;-71
2023/02/17 01:26:30;;;;;;;;;16.75;13.25;;;;;12.81;60.06;102093.94;6276614;22;45684;-72
2023/02/17 01:28:56;;;;;;;;;18.00;17.25;;;;;12.81;60.42;102097.44;6275090;22;45251;-72
2023/02/17 01:31:23;;;;;;;;;16.75;14.75;;;;;12.80;60.52;102094.81;6278224;22;45201;-72
2023/02/17 01:33:48;;;;;;;;;16.50;15.00;;;;;12.79;60.42;102088.66;6278398;22;45232;-73
2023/02/17 01:36:17;;;;;;;;;15.00;13.25;;;;;12.77;60.51;102087.78;6278275;22;45268;-72
2023/02/17 01:38:42;;;;;;;;;11.50;10.50;;;;;12.79;60.59;102095.69;6277445;22;45354;-72
2023/02/17 01:41:10;;;;;;;;;19.00;17.25;;;;;12.80;60.20;102084.25;6277949;22;45268;-72
2023/02/17 01:43:35;;;;;;;;;18.25;17.25;;;;;12.78;60.54;102083.38;6277615;22;45222;-72
2023/02/17 01:46:04;;;;;;;;;13.50;13.50;;;;;12.77;60.45;102081.63;6277993;22;45148;-72
2023/02/17 01:48:38;;;;;;;;;18.75;17.00;;;;;12.78;60.39;102081.63;6275726;22;47112;-72
2023/02/17 01:51:18;;;;;;;;;17.25;17.25;;;;;12.79;60.88;102074.59;6275808;22;45212;-72
2023/02/17 01:53:55;;;;;;;;;15.50;13.00;;;;;12.73;60.77;102079.88;6277399;22;45225;-72
2023/02/17 01:56:22;;;;;;;;;15.00;13.00;;;;;12.74;60.78;102079.88;6278896;22;45175;-72
2023/02/17 01:58:58;;;;;;;;;20.00;17.00;;;;;12.76;60.92;102077.25;6276660;22;47200;-72
2023/02/17 02:01:34;;;;;;;;;18.00;16.00;;;;;12.74;61.00;102073.72;6279436;22;45205;-72
2023/02/17 02:04:03;;;;;;;;;18.75;17.00;;;;;12.74;61.02;102068.44;6279390;22;45423;-71
2023/02/17 02:06:32;;;;;;;;;19.50;19.25;;;;;12.63;61.20;102060.56;6277263;22;45150;-72
2023/02/17 02:09:04;;;;;;;;;16.75;13.75;;;;;12.71;61.18;102073.75;6276571;22;46056;-72
2023/02/17 02:11:29;;;;;;;;;18.25;17.25;;;;;12.71;60.90;102079.00;6279106;22;45339;-72
2023/02/17 02:13:56;;;;;;;;;15.75;15.50;;;;;12.68;60.94;102074.63;6278720;22;45397;-71
2023/02/17 02:16:49;;;;;;;;;16.25;15.25;;;;;12.68;61.02;102067.56;6276780;22;45193;-71
2023/02/17 02:19:45;;;;;;;;;14.00;12.50;;;;;12.70;60.95;102075.47;6279069;22;46090;-72
2023/02/17 02:22:35;;;;;;;;;17.25;17.25;;;;;12.67;61.21;102079.00;6277216;22;45384;-72
2023/02/17 02:25:29;;;;;;;;;15.50;15.25;;;;;12.66;61.13;102071.09;6279430;22;45326;-72
2023/02/17 02:28:32;;;;;;;;;17.25;16.50;;;;;12.66;61.42;102077.22;6264821;22;45574;-72
2023/02/17 02:31:00;;;;;;;;;17.75;16.25;;;;;12.66;61.20;102074.59;6279179;22;45106;-72
2023/02/17 02:33:39;;;;;;;;;17.50;16.00;;;;;12.63;61.08;102077.25;6279275;22;45356;-72
2023/02/17 02:36:21;;;;;;;;;17.25;16.25;;;;;12.64;61.32;102071.09;6279527;22;45149;-72
2023/02/17 02:38:56;;;;;;;;;16.25;14.25;;;;;12.65;61.33;102077.25;6278691;22;45301;-72
2023/02/17 02:41:30;;;;;;;;;19.00;16.00;;;;;12.64;61.25;102076.38;6279295;22;46489;-72
2023/02/17 02:43:55;;;;;;;;;15.00;15.00;;;;;12.59;61.22;102067.59;6278822;22;45361;-72
2023/02/17 02:46:21;;;;;;;;;17.00;15.50;;;;;12.60;61.34;102066.72;6277430;22;45270;-72
2023/02/17 02:48:48;;;;;;;;;19.75;16.75;;;;;12.63;61.35;102064.06;6279112;22;45290;-72
2023/02/17 02:51:15;;;;;;;;;16.75;13.50;;;;;12.65;61.15;102064.97;6279007;22;46212;-73
2023/02/17 02:54:02;;;;;;;;;17.25;17.25;;;;;12.66;61.31;102057.91;6279364;22;45194;-73
2023/02/17 02:56:58;;;;;;;;;18.00;14.00;;;;;12.62;61.38;102054.41;6277113;22;45189;-73
2023/02/17 02:59:46;;;;;;;;;16.50;15.50;;;;;12.64;61.84;102063.19;6277220;22;46046;-72
2023/02/17 03:02:44;;;;;;;;;17.50;17.50;;;;;12.63;61.61;102058.78;6276840;22;47489;-72
2023/02/17 03:05:31;;;;;;;;;18.00;16.50;;;;;12.64;61.51;102059.66;6260273;22;45155;-72
2023/02/17 03:08:16;;;;;;;;;21.00;18.50;;;;;12.64;61.49;102059.66;6276185;22;45214;-73
2023/02/17 03:10:51;;;;;;;;;18.50;16.00;;;;;12.62;61.93;102054.41;6276622;22;45180;-73
2023/02/17 03:13:17;;;;;;;;;15.25;13.75;;;;;12.63;61.67;102058.78;6278320;22;46016;-72
2023/02/17 03:15:43;;;;;;;;;19.00;17.50;;;;;12.63;62.30;102058.78;6278950;22;45102;-72
2023/02/17 03:18:09;;;;;;;;;20.25;18.75;;;;;12.63;62.18;102063.22;6279120;22;45371;-72
2023/02/17 03:20:44;;;;;;;;;16.00;14.75;;;;;12.62;61.91;102064.09;6279089;22;45308;-72
2023/02/17 03:23:10;;;;;;;;;19.25;15.75;;;;;12.62;61.95;102057.03;6279070;22;45988;-72
2023/02/17 03:25:35;;;;;;;;;17.00;15.50;;;;;12.58;62.11;102057.03;6276707;22;45335;-72
2023/02/17 03:28:01;;;;;;;;;13.25;10.75;;;;;12.63;62.17;102057.94;6278411;22;45373;-72
2023/02/17 03:30:29;;;;;;;;;20.50;15.50;;;;;12.62;62.31;102059.66;6278876;22;45347;-72
2023/02/17 03:32:55;;;;;;;;;18.75;16.50;;;;;12.58;62.22;102051.75;6277411;22;48119;-72
2023/02/17 03:35:20;;;;;;;;;18.25;16.25;;;;;12.61;62.16;102059.69;6279252;22;45247;-72
2023/02/17 03:37:45;;;;;;;;;16.00;14.75;;;;;12.60;62.03;102053.53;6278975;22;45162;-72
2023/02/17 03:40:17;;;;;;;;;10.25;10.25;;;;;12.61;62.21;102055.28;6278968;22;45217;-72
2023/02/17 03:42:42;;;;;;;;;18.50;14.00;;;;;12.57;62.30;102050.91;6278246;22;45349;-72
2023/02/17 03:45:08;;;;;;;;;15.50;15.00;;;;;12.60;62.32;102055.28;6278863;22;45249;-72
2023/02/17 03:47:33;;;;;;;;;13.75;12.50;;;;;12.60;62.30;102056.19;6277266;22;45416;-72
2023/02/17 03:49:59;;;;;;;;;21.00;17.50;;;;;12.61;62.45;102050.00;6278952;22;45189;-72
2023/02/17 03:52:24;;;;;;;;;15.25;14.00;;;;;12.59;62.28;102050.88;6278901;22;45318;-72
2023/02/17 03:54:52;;;;;;;;;16.75;14.50;;;;;12.60;62.26;102058.81;6278874;22;45096;-72
2023/02/17 03:57:23;;;;;;;;;16.50;15.25;;;;;12.59;62.28;102061.44;6276378;22;45197;-72
2023/02/17 03:59:49;;;;;;;;;13.25;12.50;;;;;12.58;62.30;102057.94;6276326;22;45411;-72
2023/02/17 04:02:14;;;;;;;;;19.25;16.00;;;;;12.61;62.42;102071.09;6278485;22;45204;-72
2023/02/17 04:04:40;;;;;;;;;19.25;16.50;;;;;12.60;62.55;102074.63;6276778;22;45221;-71
2023/02/17 04:07:05;;;;;;;;;16.25;15.75;;;;;12.57;62.40;102071.13;6276450;22;45196;-72
2023/02/17 04:09:31;;;;;;;;;13.50;13.00;;;;;12.59;62.32;102072.88;6278398;22;45186;-72
2023/02/17 04:11:56;;;;;;;;;12.50;11.75;;;;;12.58;62.77;102067.59;6276108;22;47069;-72
2023/02/17 04:14:22;;;;;;;;;20.00;16.00;;;;;12.56;62.50;102067.59;6276850;22;45170;-71
2023/02/17 04:16:50;;;;;;;;;16.25;16.25;;;;;12.56;62.37;102078.13;6278550;22;45250;-72
2023/02/17 04:19:15;;;;;;;;;16.00;14.00;;;;;12.60;62.57;102079.03;6278721;22;45176;-72
2023/02/17 04:21:41;;;;;;;;;16.25;14.50;;;;;12.59;62.71;102079.88;6278793;22;45246;-72
2023/02/17 04:24:06;;;;;;;;;16.00;12.00;;;;;12.59;62.79;102072.88;6278819;22;45361;-71
2023/02/17 04:26:32;;;;;;;;;15.00;12.75;;;;;12.56;62.64;102074.63;6278454;22;45282;-71
2023/02/17 04:28:57;;;;;;;;;14.75;14.00;;;;;12.53;62.63;102072.88;6278455;22;45451;-71
2023/02/17 04:31:24;;;;;;;;;19.00;15.00;;;;;12.57;62.81;102086.94;6278745;22;46187;-72
2023/02/17 04:33:55;;;;;;;;;19.00;17.75;;;;;12.59;62.89;102087.81;6278406;22;45157;-71
2023/02/17 04:36:21;;;;;;;;;18.00;17.00;;;;;12.55;62.80;102092.19;6278942;22;45207;-71
2023/02/17 04:38:46;;;;;;;;;19.50;15.75;;;;;12.59;62.60;102093.97;6278114;22;45227;-72
2023/02/17 04:41:12;;;;;;;;;19.25;16.50;;;;;12.56;63.11;102095.72;6278685;22;45996;-72
2023/02/17 04:43:37;;;;;;;;;15.75;14.00;;;;;12.57;62.96;102101.00;6278352;22;45343;-71
2023/02/17 04:46:03;;;;;;;;;15.25;14.25;;;;;12.57;63.06;102095.72;6278523;22;45228;-71
2023/02/17 04:48:28;;;;;;;;;13.50;11.00;;;;;12.55;63.24;102099.25;6278676;22;45397;-72
2023/02/17 04:50:53;;;;;;;;;15.75;14.00;;;;;12.54;63.07;102090.47;6278583;22;45357;-72
2023/02/17 04:53:21;;;;;;;;;13.25;13.00;;;;;12.54;63.02;102095.75;6278912;22;45283;-72
2023/02/17 04:55:52;;;;;;;;;14.75;14.75;;;;;12.54;63.10;102098.38;6278622;22;45161;-72
2023/02/17 04:58:18;;;;;;;;;25.50;19.00;;;;;12.52;63.22;102093.06;6275433;22;45542;-72
2023/02/17 05:00:45;;;;;;;;;21.50;16.75;;;;;12.52;63.09;102086.94;6278242;22;46073;-72
2023/02/17 05:03:11;;;;;;;;;15.50;15.50;;;;;12.57;63.21;102101.00;6278572;22;45098;-72
2023/02/17 05:05:37;;;;;;;;;11.00;10.00;;;;;12.55;63.05;102101.88;6278559;22;45161;-72
2023/02/17 05:08:04;;;;;;;;;15.00;15.00;;;;;12.52;63.47;102106.25;6275320;22;45263;-72
2023/02/17 05:10:30;;;;;;;;;18.00;15.50;;;;;12.55;63.40;102100.09;6278286;22;45472;-71
2023/02/17 05:12:55;;;;;;;;;9.00;9.00;;;;;12.52;63.17;102100.13;6277999;22;45323;-70
2023/02/17 05:15:21;;;;;;;;;17.75;16.50;;;;;12.54;63.11;102105.38;6276790;22;45286;-70
2023/02/17 05:17:46;;;;;;;;;13.25;12.00;;;;;12.51;63.43;102108.91;6278312;22;45567;-72
2023/02/17 05:20:12;;;;;;;;;18.25;15.00;;;;;12.53;63.09;102115.06;6278365;22;46213;-72
2023/02/17 05:22:37;;;;;;;;;13.00;13.00;;;;;12.52;63.40;102113.31;6276421;22;45840;-72
2023/02/17 05:25:03;;;;;;;;;17.25;16.00;;;;;12.52;63.76;102113.31;6276378;22;45268;-70
2023/02/17 05:27:29;;;;;;;;;16.00;15.00;;;;;12.51;63.56;102114.19;6278088;22;45392;-71
2023/02/17 05:29:54;;;;;;;;;14.75;13.75;;;;;12.50;63.54;102117.69;6279712;22;45885;-72
2023/02/17 05:32:21;;;;;;;;;17.75;16.00;;;;;12.51;63.78;102111.53;6279460;22;45122;-72
2023/02/17 05:34:47;;;;;;;;;18.25;17.00;;;;;12.50;63.54;102110.69;6277737;22;45195;-72
2023/02/17 05:37:15;;;;;;;;;18.00;17.50;;;;;12.47;63.77;102108.03;6279007;22;45078;-72
2023/02/17 05:39:40;;;;;;;;;15.25;15.00;;;;;12.49;63.48;102113.28;6279878;22;45298;-72
2023/02/17 05:42:06;;;;;;;;;14.50;13.75;;;;;12.44;63.83;102107.16;6279035;22;45247;-72
2023/02/17 05:44:31;;;;;;;;;14.25;13.25;;;;;12.45;63.81;102108.91;6277763;22;45356;-72
2023/02/17 05:46:57;;;;;;;;;15.75;15.50;;;;;12.40;63.69;102110.66;6279374;22;45314;-72
2023/02/17 05:49:22;;;;;;;;;14.75;13.50;;;;;12.39;63.90;102106.28;6279503;22;45635;-71
2023/02/17 05:51:47;;;;;;;;;15.50;13.00;;;;;12.45;63.77;102116.81;6279376;22;45347;-71
2023/02/17 05:54:13;;;;;;;;;17.50;16.00;;;;;12.47;63.79;102123.84;6279783;22;45371;-72
2023/02/17 05:56:38;;;;;;;;;16.75;15.00;;;;;12.45;63.68;102116.81;6278793;22;45355;-72
2023/02/17 05:59:03;;;;;;;;;16.75;14.75;;;;;12.43;63.80;102118.59;6279329;22;46161;-72
2023/02/17 06:01:29;;;;;;;;;13.50;13.50;;;;;12.49;64.10;102123.84;6279437;22;45208;-72
2023/02/17 06:03:54;;;;;;;;;15.50;14.75;;;;;12.48;64.22;102124.75;6277633;22;45205;-72
2023/02/17 06:06:19;;;;;;;;;19.25;17.75;;;;;12.44;63.96;102120.31;6279341;22;45393;-71
2023/02/17 06:08:45;;;;;;;;;14.00;12.25;;;;;12.44;64.24;102121.22;6278818;22;46028;-71
2023/02/17 06:11:10;;;;;;;;;15.75;15.75;;;;;12.44;64.02;102115.06;6277126;22;45911;-71
2023/02/17 06:13:36;;;;;;;;;15.75;14.25;;;;;12.48;63.90;102127.38;6279259;22;45504;-71
2023/02/17 06:16:02;;;;;;;;;12.00;12.00;;;;;12.43;63.99;102114.19;6279386;22;45378;-71
2023/02/17 06:18:28;;;;;;;;;13.75;10.50;;;;;12.41;64.22;102118.56;6278802;22;46213;-71
2023/02/17 06:20:57;;;;;;;;;13.75;13.75;;;;;12.47;64.28;102126.47;6279343;22;45300;-71
2023/02/17 06:23:24;;;;;;;;;15.00;13.00;;;;;12.44;63.95;102131.78;6279696;22;45231;-71
2023/02/17 06:25:49;;;;;;;;;14.00;14.00;;;;;12.46;64.16;102144.94;6279172;22;45323;-71
2023/02/17 06:28:15;;;;;;;;;17.00;13.00;;;;;12.49;64.04;102140.56;6278340;22;45508;-71
2023/02/17 06:30:40;;;;;;;;;16.00;13.25;;;;;12.49;64.04;102145.81;6279216;22;45224;-71
2023/02/17 06:33:05;;;;;;;;;14.25;14.25;;;;;12.51;64.03;102148.47;6279344;22;45085;-71
2023/02/17 06:35:31;;;;;;;;;12.25;11.00;;;;;12.51;64.01;102146.72;6279220;22;45335;-73
2023/02/17 06:37:56;;;;;;;;;15.00;14.50;;;;;12.52;64.25;102144.94;6276996;22;48094;-72
2023/02/17 06:40:22;;;;;;;;;11.25;11.25;;;;;12.51;63.82;102145.81;6279242;22;45164;-72
2023/02/17 06:42:47;;;;;;;;;10.75;10.75;;;;;12.54;64.13;102169.56;6279045;22;45232;-72
2023/02/17 06:45:13;;;;;;;;;15.75;15.25;;;;;12.53;64.51;102170.44;6279432;22;45124;-72
2023/02/17 06:47:38;;;;;;;;;14.25;13.00;;;;;12.51;64.39;102169.56;6276637;22;47728;-72
2023/02/17 06:50:05;;;;;;;;;13.00;12.00;;;;;12.54;64.41;102182.75;6277183;22;45252;-71
2023/02/17 06:52:30;;;;;;;;;12.00;11.00;;;;;12.54;64.22;102172.22;6279136;22;45309;-71
2023/02/17 06:54:55;;;;;;;;;14.50;14.00;;;;;12.51;64.34;102170.44;6276787;22;45453;-74
2023/02/17 06:57:21;;;;;;;;;12.50;12.00;;;;;12.54;64.52;102176.59;6276514;22;45508;-73
2023/02/17 06:59:46;;;;;;;;;15.50;15.00;;;;;12.56;64.70;102183.63;6303041;22;45596;-69
2023/02/17 07:02:13;;;;;;;;;14.75;13.75;;;;;12.54;64.50;102179.22;6302877;22;45306;-68
2023/02/17 07:04:39;;;;;;;;;12.50;11.25;;;;;12.54;64.81;102182.75;6278765;22;45388;-67
2023/02/17 07:07:04;;;;;;;;;14.25;12.00;;;;;12.56;65.02;102191.53;6275781;22;47014;-68
2023/02/17 07:09:30;;;;;;;;;12.75;11.00;;;;;12.54;64.76;102190.66;6278711;22;45239;-70
2023/02/17 07:11:56;;;;;;;;;14.50;12.75;;;;;12.56;64.97;102203.84;6278399;22;45283;-68
2023/02/17 07:14:22;;;;;;;;;12.50;12.50;;;;;12.54;64.84;102200.31;6277162;22;45201;-68
2023/02/17 07:16:48;;;;;;;;;13.50;11.25;;;;;12.55;64.90;102204.72;6278699;22;45183;-68
2023/02/17 07:19:13;;;;;;;;;12.00;12.00;;;;;12.51;64.86;102201.19;6276820;22;45397;-67
2023/02/17 07:21:39;;;;;;;;;15.25;14.25;;;;;12.58;64.85;102208.25;6279077;22;45232;-67
2023/02/17 07:24:05;;;;;;;;;9.75;9.50;;;;;12.57;64.98;102206.47;6276910;22;45497;-67
2023/02/17 07:26:30;;;;;;;;;10.75;10.75;;;;;12.61;65.00;102208.22;6275979;22;46764;-68
2023/02/17 07:28:55;;;;;;;;;10.75;9.50;;;;;12.60;64.91;102217.03;6278551;22;45401;-68
2023/02/17 07:31:21;;;;;;;;;14.25;12.50;;;;;12.61;64.73;102210.88;6278855;22;45307;-67
2023/02/17 07:33:47;;;;;;;;;9.75;9.75;;;;;12.60;64.70;102214.41;6278857;22;45306;-67
2023/02/17 07:36:15;;;;;;;;;12.00;10.00;;;;;12.57;64.83;102210.88;6277688;22;45380;-67
2023/02/17 07:38:41;;;;;;;;;12.75;9.25;;;;;12.65;64.99;102217.03;6278328;22;45288;-67
2023/02/17 07:41:13;;;;;;;;;12.50;8.00;;;;;12.59;64.99;102220.56;6278510;22;45113;-69
2023/02/17 07:43:38;;;;;;;;;11.75;10.75;;;;;12.65;65.23;102228.47;6278395;22;45315;-68
2023/02/17 07:46:04;;;;;;;;;11.00;9.00;;;;;12.65;65.15;102225.84;6276889;22;48117;-69
2023/02/17 07:48:30;;;;;;;;;10.75;8.50;;;;;12.65;64.92;102231.09;6278785;22;45196;-69
2023/02/17 07:50:55;;;;;;;;;8.75;8.00;;;;;12.60;65.04;102213.50;6278834;22;45168;-69
2023/02/17 07:53:21;;;;;;;;;9.25;9.25;;;;;12.66;65.03;102217.00;6278943;22;45525;-69
2023/02/17 07:55:47;;;;;;;;;9.00;9.00;;;;;12.65;65.01;102220.56;6279095;22;46336;-69
2023/02/17 07:58:12;;;;;;;;;8.50;8.25;;;;;12.70;65.42;102230.22;6277992;22;45173;-69
2023/02/17 08:00:38;;;;;;;;;12.00;10.00;;;;;12.70;64.72;102232.88;6279112;22;45446;-70
2023/02/17 08:03:03;;;;;;;;;9.50;8.75;;;;;12.68;65.08;102224.97;6278980;22;45158;-70
2023/02/17 08:05:29;;;;;;;;;8.25;8.25;;;;;12.73;64.97;102246.94;6278925;22;45136;-70
2023/02/17 08:13:25;;;;;;;;;10.50;10.50;;;;;12.65;65.21;102233.75;6278161;22;45211;-70
2023/02/17 08:15:50;;;;;;;;;9.75;9.75;;;;;12.71;65.32;102243.41;6278334;22;45401;-70
2023/02/17 08:18:16;;;;;;;;;10.50;7.75;;;;;12.70;65.39;102240.78;6278354;22;45265;-70
2023/02/17 08:20:42;;;;;;;;;8.75;7.75;;;;;12.75;65.48;102257.47;6279160;22;45233;-70
2023/02/17 08:23:07;;;;;;;;;9.50;9.50;;;;;12.68;65.34;102238.16;6276780;22;45320;-70
2023/02/17 08:25:34;;;;;;;;;8.75;8.75;;;;;12.75;65.65;102255.72;6276963;22;47087;-70
2023/02/17 08:28:01;;;;;;;;;7.50;6.50;;;;;12.74;65.38;102251.34;6276059;22;45226;-70
2023/02/17 08:30:26;;;;;;;;;7.75;6.25;;;;;12.76;65.39;102257.47;6278842;22;45394;-70
2023/02/17 08:32:52;;;;;;;;;6.50;6.50;;;;;12.77;65.48;102253.97;6278983;22;45181;-70
2023/02/17 08:35:21;;;;;;;;;10.00;9.00;;;;;12.78;65.27;102258.38;6302981;22;47828;-70
2023/02/17 08:37:47;;;;;;;;;10.75;10.50;;;;;12.78;65.53;102245.19;6302287;22;45251;-70
2023/02/17 08:40:12;;;;;;;;;8.25;7.00;;;;;12.77;65.43;102247.81;6277064;22;45269;-70
2023/02/17 08:42:37;;;;;;;;;10.00;8.50;;;;;12.82;65.51;102251.34;6278143;22;45311;-70
2023/02/17 08:45:03;;;;;;;;;7.50;7.00;;;;;12.84;65.73;102249.56;6301904;22;46958;-70
2023/02/17 08:47:29;;;;;;;;;8.50;6.25;;;;;12.90;65.33;102240.78;6278396;22;45461;-70
2023/02/17 08:49:54;;;;;;;;;6.50;6.00;;;;;12.88;65.46;102248.72;6278745;22;45255;-70
2023/02/17 08:52:19;;;;;;;;;8.00;8.00;;;;;12.86;65.73;102242.53;6278634;22;45413;-70
2023/02/17 08:54:45;;;;;;;;;6.00;6.00;;;;;12.90;65.53;102253.97;6278473;22;45081;-69
2023/02/17 08:57:10;;;;;;;;;7.00;7.00;;;;;12.84;65.82;102245.19;6277846;22;45184;-70
2023/02/17 08:59:35;;;;;;;;;9.75;8.75;;;;;12.95;65.95;102255.72;6278783;22;45256;-70
2023/02/17 09:02:01;;;;;;;;;10.00;7.50;;;;;12.93;65.61;102246.03;6278702;22;45521;-70
2023/02/17 09:04:26;;;;;;;;;6.25;6.00;;;;;12.98;65.53;102253.09;6279928;22;45156;-70
2023/02/17 09:06:57;;;;;;;;;7.25;7.25;;;;;13.00;65.83;102254.00;6279665;22;45114;-70
2023/02/17 09:09:27;;;;;;;;;8.75;8.75;;;;;13.02;65.57;102253.97;6279271;22;45259;-70
2023/02/17 09:11:54;;;;;;;;;8.25;7.25;;;;;13.07;65.65;102261.88;6279166;22;45347;-70
2023/02/17 09:14:22;;;;;;;;;9.75;9.75;;;;;13.08;65.61;102261.00;6279408;22;45960;-70
2023/02/17 09:16:50;;;;;;;;;9.50;8.50;;;;;13.09;65.67;102249.56;6279238;22;45299;-70
2023/02/17 09:19:15;;;;;;;;;8.50;7.75;;;;;13.09;65.61;102253.06;6252644;22;45224;-69
2023/02/17 09:21:40;;;;;;;;;9.00;8.50;;;;;13.15;65.69;102257.47;6279556;22;45463;-70
2023/02/17 09:24:06;;;;;;;;;8.50;8.50;;;;;13.19;65.39;102264.50;6279443;22;45121;-69
2023/02/17 09:26:33;;;;;;;;;7.25;7.25;;;;;13.17;65.89;102256.59;6279216;22;45132;-69
2023/02/17 09:29:00;;;;;;;;;7.50;7.00;;;;;13.24;65.45;102267.16;6277865;22;45428;-69
2023/02/17 09:31:26;;;;;;;;;4.50;4.50;;;;;13.24;65.54;102270.66;6278825;22;45316;-70
2023/02/17 09:33:51;;;;;;;;;10.50;9.00;;;;;13.25;65.48;102271.56;6279533;22;45312;-70
2023/02/17 09:36:38;;;;;;;;;9.25;7.50;;;;;13.28;65.43;102275.09;6279598;22;45189;-70
2023/02/17 09:39:04;;;;;;;;;10.50;8.50;;;;;13.29;65.43;102270.66;6279897;22;45225;-70
2023/02/17 09:41:46;;;;;;;;;6.25;6.25;;;;;13.28;65.62;102277.72;6279140;22;45278;-70
2023/02/17 09:44:30;;;;;;;;;8.50;7.00;;;;;13.29;65.45;102274.19;6279020;22;46067;-70
2023/02/17 09:47:09;;;;;;;;;7.50;6.00;;;;;13.29;65.83;102275.94;6279350;22;45365;-70
2023/02/17 09:49:59;;;;;;;;;10.00;7.50;;;;;13.30;65.79;102262.75;6279645;22;45251;-69
2023/02/17 09:52:34;;;;;;;;;5.50;5.25;;;;;13.27;65.69;102267.13;6277396;22;45805;-70
2023/02/17 09:55:08;;;;;;;;;5.50;5.50;;;;;13.36;65.66;102277.72;6277425;22;46895;-69
2023/02/17 09:58:02;;;;;;;;;5.75;5.25;;;;;13.35;65.30;102278.59;6278940;22;45359;-70
2023/02/17 10:00:40;;;;;;;;;5.75;5.75;;;;;13.39;65.85;102280.38;6276879;22;45197;-70
2023/02/17 10:03:29;;;;;;;;;8.00;7.00;;;;;13.41;65.59;102280.34;6279461;22;45283;-70
2023/02/17 10:06:09;;;;;;;;;7.00;6.75;;;;;13.42;65.34;102266.28;6277082;22;47589;-69
2023/02/17 10:09:00;;;;;;;;;6.50;6.50;;;;;13.45;65.37;102276.84;6276990;22;45533;-69
2023/02/17 10:11:32;;;;;;;;;8.25;5.50;;;;;13.44;65.52;102273.31;6245743;22;45138;-69
2023/02/17 10:14:06;;;;;;;;;7.25;5.50;;;;;13.47;65.54;102275.97;6277102;22;45264;-69
2023/02/17 10:16:40;;;;;;;;;6.75;6.00;;;;;13.48;65.38;102280.38;6279256;22;46251;-69
2023/02/17 10:19:19;;;;;;;;;7.50;6.75;;;;;13.56;65.36;102285.63;6277221;22;45260;-69
2023/02/17 10:21:54;;;;;;;;;7.25;7.00;;;;;13.56;65.32;102284.72;6279740;22;45201;-69
2023/02/17 10:24:19;;;;;;;;;5.00;5.00;;;;;13.59;65.27;102284.75;6279492;22;45236;-69
2023/02/17 10:27:05;;;;;;;;;4.75;4.75;;;;;13.57;65.09;102283.84;6278778;22;45156;-69
2023/02/17 10:29:43;;;;;;;;;5.00;5.00;;;;;13.63;65.31;102292.66;6276616;22;45311;-70
2023/02/17 10:32:21;;;;;;;;;3.50;3.00;;;;;13.65;65.55;102282.94;6279619;22;45221;-70
2023/02/17 10:35:03;;;;;;;;;5.50;5.00;;;;;13.66;65.18;102275.94;6279484;22;45306;-69
2023/02/17 10:37:47;;;;;;;;;4.25;4.25;;;;;13.72;65.20;102288.22;6278501;22;45979;-70
2023/02/17 10:40:24;;;;;;;;;4.50;4.00;;;;;13.72;65.19;102280.28;6276664;22;45213;-70
2023/02/17 10:42:54;;;;;;;;;7.25;6.25;;;;;13.74;65.25;102283.81;6278520;22;45324;-70
2023/02/17 10:45:39;;;;;;;;;6.00;6.00;;;;;13.76;65.14;102276.75;6279442;22;45221;-70
2023/02/17 10:48:10;;;;;;;;;5.50;5.50;;;;;13.78;65.39;102291.72;6278254;22;46084;-70
2023/02/17 10:50:39;;;;;;;;;5.00;5.00;;;;;13.79;65.29;102285.56;6279312;22;45247;-70
2023/02/17 10:53:19;;;;;;;;;6.00;5.00;;;;;13.83;64.99;102294.34;6279395;22;45251;-70
2023/02/17 10:56:03;;;;;;;;;6.75;6.25;;;;;13.83;64.95;102294.34;6277147;22;45276;-70
2023/02/17 10:58:33;;;;;;;;;4.75;4.75;;;;;13.86;65.07;102304.03;6278385;22;45152;-71
2023/02/17 11:01:01;;;;;;;;;6.00;6.00;;;;;13.85;65.13;102294.34;6278535;22;45424;-70
2023/02/17 11:03:29;;;;;;;;;8.50;5.50;;;;;13.88;64.91;102292.56;6278872;22;45221;-70
2023/02/17 11:05:59;;;;;;;;;4.75;4.50;;;;;13.90;65.09;102296.09;6279264;22;45292;-70
2023/02/17 11:08:49;;;;;;;;;5.00;4.00;;;;;13.91;64.92;102294.31;6277984;22;46386;-70
2023/02/17 11:11:27;;;;;;;;;4.75;2.75;;;;;13.95;65.31;102280.25;6278579;22;45350;-68
2023/02/17 11:14:16;;;;;;;;;4.75;4.75;;;;;13.95;65.12;102281.09;6277375;22;45292;-69
2023/02/17 11:16:52;;;;;;;;;6.00;4.00;;;;;13.96;65.03;102274.94;6278936;22;45156;-70
2023/02/17 11:19:25;;;;;;;;;8.00;7.00;;;;;13.94;65.12;102271.41;6279154;22;46135;-69
2023/02/17 11:21:52;;;;;;;;;7.25;5.50;;;;;13.96;64.98;102274.94;6279036;22;45114;-69
2023/02/17 11:24:18;;;;;;;;;6.75;4.00;;;;;14.01;65.14;102292.53;6278609;22;45093;-69
2023/02/17 11:27:01;;;;;;;;;5.00;5.00;;;;;13.97;64.86;102287.28;6278104;22;45148;-70
2023/02/17 11:29:27;;;;;;;;;5.50;5.50;;;;;14.05;64.62;102296.91;6279045;22;45177;-70